sensor_id;sensor_type;location;lat;lon;timestamp;temperature;humidity
69382;DHT22;56560;50.692;12.844;2022-07-21T00:00:33;26.40;36.70
69382;DHT22;56560;50.692;12.844;2022-07-21T00:02:59;26.40;36.90
69382;DHT22;56560;50.692;12.844;2022-07-21T00:05:26;26.40;36.90
69382;DHT22;56560;50.692;12.844;2022-07-21T00:07:52;26.30;37.20
69382;DHT22;56560;50.692;12.844;2022-07-21T00:10:20;26.30;37.20
69382;DHT22;56560;50.692;12.844;2022-07-21T00:12:46;26.20;37.50
69382;DHT22;56560;50.692;12.844;2022-07-21T00:15:13;26.10;38.00
69382;DHT22;56560;50.692;12.844;2022-07-21T00:17:39;26.00;38.40
69382;DHT22;56560;50.692;12.844;2022-07-21T00:20:06;25.80;38.70
69382;DHT22;56560;50.692;12.844;2022-07-21T00:22:33;25.70;38.80
69382;DHT22;56560;50.692;12.844;2022-07-21T00:24:58;25.60;39.00
69382;DHT22;56560;50.692;12.844;2022-07-21T00:27:25;25.50;38.90
69382;DHT22;56560;50.692;12.844;2022-07-21T00:29:50;25.50;38.70
69382;DHT22;56560;50.692;12.844;2022-07-21T00:32:16;25.50;39.10
69382;DHT22;56560;50.692;12.844;2022-07-21T00:34:42;25.50;39.40
69382;DHT22;56560;50.692;12.844;2022-07-21T00:37:09;25.40;40.50
69382;DHT22;56560;50.692;12.844;2022-07-21T00:39:35;25.30;42.30
69382;DHT22;56560;50.692;12.844;2022-07-21T00:42:01;25.20;43.40
69382;DHT22;56560;50.692;12.844;2022-07-21T00:44:27;25.20;44.10
69382;DHT22;56560;50.692;12.844;2022-07-21T00:46:53;25.20;45.50
69382;DHT22;56560;50.692;12.844;2022-07-21T00:49:20;25.20;45.80
69382;DHT22;56560;50.692;12.844;2022-07-21T00:51:47;25.10;47.00
69382;DHT22;56560;50.692;12.844;2022-07-21T00:54:15;25.10;47.90
69382;DHT22;56560;50.692;12.844;2022-07-21T00:56:42;25.10;48.70
69382;DHT22;56560;50.692;12.844;2022-07-21T00:59:07;25.00;49.00
69382;DHT22;56560;50.692;12.844;2022-07-21T01:01:33;25.00;49.50
69382;DHT22;56560;50.692;12.844;2022-07-21T01:03:59;24.90;49.70
69382;DHT22;56560;50.692;12.844;2022-07-21T01:06:25;24.80;50.20
69382;DHT22;56560;50.692;12.844;2022-07-21T01:08:51;24.70;50.80
69382;DHT22;56560;50.692;12.844;2022-07-21T01:11:18;24.70;51.20
69382;DHT22;56560;50.692;12.844;2022-07-21T01:13:46;24.60;51.60
69382;DHT22;56560;50.692;12.844;2022-07-21T01:16:12;24.50;52.20
69382;DHT22;56560;50.692;12.844;2022-07-21T01:18:38;24.40;52.50
69382;DHT22;56560;50.692;12.844;2022-07-21T01:21:12;24.40;52.20
69382;DHT22;56560;50.692;12.844;2022-07-21T01:23:39;24.30;52.50
69382;DHT22;56560;50.692;12.844;2022-07-21T01:26:04;24.30;53.20
69382;DHT22;56560;50.692;12.844;2022-07-21T01:28:30;24.20;53.10
69382;DHT22;56560;50.692;12.844;2022-07-21T01:30:56;24.10;53.00
69382;DHT22;56560;50.692;12.844;2022-07-21T01:33:21;24.00;53.60
69382;DHT22;56560;50.692;12.844;2022-07-21T01:35:47;23.90;53.80
69382;DHT22;56560;50.692;12.844;2022-07-21T01:38:13;23.80;53.70
69382;DHT22;56560;50.692;12.844;2022-07-21T01:41:00;23.70;54.90
69382;DHT22;56560;50.692;12.844;2022-07-21T01:43:44;23.50;55.00
69382;DHT22;56560;50.692;12.844;2022-07-21T01:46:11;23.50;55.00
69382;DHT22;56560;50.692;12.844;2022-07-21T01:48:42;23.40;55.70
69382;DHT22;56560;50.692;12.844;2022-07-21T01:51:08;23.20;56.00
69382;DHT22;56560;50.692;12.844;2022-07-21T01:53:33;23.10;56.00
69382;DHT22;56560;50.692;12.844;2022-07-21T01:55:59;23.00;56.20
69382;DHT22;56560;50.692;12.844;2022-07-21T01:58:25;22.90;56.50
69382;DHT22;56560;50.692;12.844;2022-07-21T02:00:50;22.80;56.90
69382;DHT22;56560;50.692;12.844;2022-07-21T02:03:16;22.70;57.40
69382;DHT22;56560;50.692;12.844;2022-07-21T02:05:42;22.60;57.90
69382;DHT22;56560;50.692;12.844;2022-07-21T02:08:07;22.50;58.80
69382;DHT22;56560;50.692;12.844;2022-07-21T02:10:33;22.30;58.80
69382;DHT22;56560;50.692;12.844;2022-07-21T02:12:59;22.20;59.10
69382;DHT22;56560;50.692;12.844;2022-07-21T02:15:24;22.10;60.10
69382;DHT22;56560;50.692;12.844;2022-07-21T02:17:50;22.00;60.20
69382;DHT22;56560;50.692;12.844;2022-07-21T02:20:16;21.90;60.40
69382;DHT22;56560;50.692;12.844;2022-07-21T02:22:41;21.80;61.30
69382;DHT22;56560;50.692;12.844;2022-07-21T02:25:11;21.70;61.70
69382;DHT22;56560;50.692;12.844;2022-07-21T02:27:36;21.60;61.00
69382;DHT22;56560;50.692;12.844;2022-07-21T02:30:02;21.50;62.20
69382;DHT22;56560;50.692;12.844;2022-07-21T02:32:28;21.50;62.60
69382;DHT22;56560;50.692;12.844;2022-07-21T02:34:54;21.30;63.10
69382;DHT22;56560;50.692;12.844;2022-07-21T02:37:19;21.30;62.70
69382;DHT22;56560;50.692;12.844;2022-07-21T02:39:45;21.20;62.80
69382;DHT22;56560;50.692;12.844;2022-07-21T02:42:11;21.10;63.30
69382;DHT22;56560;50.692;12.844;2022-07-21T02:44:36;21.10;63.80
69382;DHT22;56560;50.692;12.844;2022-07-21T02:47:03;21.00;64.80
69382;DHT22;56560;50.692;12.844;2022-07-21T02:49:29;20.90;64.30
69382;DHT22;56560;50.692;12.844;2022-07-21T02:51:54;20.80;64.40
69382;DHT22;56560;50.692;12.844;2022-07-21T02:54:20;20.80;64.90
69382;DHT22;56560;50.692;12.844;2022-07-21T02:56:45;20.70;65.10
69382;DHT22;56560;50.692;12.844;2022-07-21T02:59:11;20.60;65.70
69382;DHT22;56560;50.692;12.844;2022-07-21T03:01:37;20.50;65.60
69382;DHT22;56560;50.692;12.844;2022-07-21T03:04:02;20.40;65.50
69382;DHT22;56560;50.692;12.844;2022-07-21T03:06:28;20.40;65.20
69382;DHT22;56560;50.692;12.844;2022-07-21T03:08:53;20.40;65.80
69382;DHT22;56560;50.692;12.844;2022-07-21T03:11:19;20.30;66.00
69382;DHT22;56560;50.692;12.844;2022-07-21T03:13:45;20.30;66.00
69382;DHT22;56560;50.692;12.844;2022-07-21T03:16:10;20.30;65.60
69382;DHT22;56560;50.692;12.844;2022-07-21T03:18:36;20.40;65.30
69382;DHT22;56560;50.692;12.844;2022-07-21T03:21:02;20.40;65.60
69382;DHT22;56560;50.692;12.844;2022-07-21T03:23:28;20.50;65.80
69382;DHT22;56560;50.692;12.844;2022-07-21T03:25:53;20.40;65.80
69382;DHT22;56560;50.692;12.844;2022-07-21T03:28:19;20.40;65.60
69382;DHT22;56560;50.692;12.844;2022-07-21T03:30:45;20.40;66.10
69382;DHT22;56560;50.692;12.844;2022-07-21T03:33:10;20.40;65.90
69382;DHT22;56560;50.692;12.844;2022-07-21T03:35:36;20.30;66.20
69382;DHT22;56560;50.692;12.844;2022-07-21T03:38:04;20.30;66.50
69382;DHT22;56560;50.692;12.844;2022-07-21T03:40:33;20.20;66.70
69382;DHT22;56560;50.692;12.844;2022-07-21T03:43:01;20.20;66.60
69382;DHT22;56560;50.692;12.844;2022-07-21T03:45:28;20.20;67.40
69382;DHT22;56560;50.692;12.844;2022-07-21T03:48:01;20.10;66.90
69382;DHT22;56560;50.692;12.844;2022-07-21T03:50:28;20.20;66.60
69382;DHT22;56560;50.692;12.844;2022-07-21T03:52:54;20.20;66.70
69382;DHT22;56560;50.692;12.844;2022-07-21T03:55:21;20.20;66.90
69382;DHT22;56560;50.692;12.844;2022-07-21T03:57:52;20.20;66.60
69382;DHT22;56560;50.692;12.844;2022-07-21T04:00:33;20.30;66.70
69382;DHT22;56560;50.692;12.844;2022-07-21T04:02:59;20.30;67.30
69382;DHT22;56560;50.692;12.844;2022-07-21T04:05:26;20.30;67.30
69382;DHT22;56560;50.692;12.844;2022-07-21T04:07:52;20.40;66.50
69382;DHT22;56560;50.692;12.844;2022-07-21T04:10:21;20.60;66.70
69382;DHT22;56560;50.692;12.844;2022-07-21T04:12:48;20.60;66.70
69382;DHT22;56560;50.692;12.844;2022-07-21T04:15:14;20.70;66.60
69382;DHT22;56560;50.692;12.844;2022-07-21T04:17:40;20.70;66.60
69382;DHT22;56560;50.692;12.844;2022-07-21T04:20:07;20.90;66.10
69382;DHT22;56560;50.692;12.844;2022-07-21T04:22:33;21.20;65.00
69382;DHT22;56560;50.692;12.844;2022-07-21T04:24:59;21.50;64.50
69382;DHT22;56560;50.692;12.844;2022-07-21T04:27:25;21.70;63.30
69382;DHT22;56560;50.692;12.844;2022-07-21T04:29:51;21.90;63.00
69382;DHT22;56560;50.692;12.844;2022-07-21T04:32:17;21.90;62.90
69382;DHT22;56560;50.692;12.844;2022-07-21T04:34:43;22.00;63.10
69382;DHT22;56560;50.692;12.844;2022-07-21T04:37:08;22.10;63.20
69382;DHT22;56560;50.692;12.844;2022-07-21T04:39:34;22.10;63.00
69382;DHT22;56560;50.692;12.844;2022-07-21T04:42:00;22.20;62.50
69382;DHT22;56560;50.692;12.844;2022-07-21T04:44:25;22.20;62.30
69382;DHT22;56560;50.692;12.844;2022-07-21T04:46:51;22.20;62.30
69382;DHT22;56560;50.692;12.844;2022-07-21T04:49:17;22.20;63.00
69382;DHT22;56560;50.692;12.844;2022-07-21T04:51:42;22.20;63.20
69382;DHT22;56560;50.692;12.844;2022-07-21T04:54:08;22.10;63.40
69382;DHT22;56560;50.692;12.844;2022-07-21T04:56:34;22.10;63.20
69382;DHT22;56560;50.692;12.844;2022-07-21T04:59:01;22.20;63.40
69382;DHT22;56560;50.692;12.844;2022-07-21T05:01:26;22.20;63.60
69382;DHT22;56560;50.692;12.844;2022-07-21T05:03:52;22.30;63.40
69382;DHT22;56560;50.692;12.844;2022-07-21T05:06:18;22.50;63.10
69382;DHT22;56560;50.692;12.844;2022-07-21T05:08:44;22.70;62.40
69382;DHT22;56560;50.692;12.844;2022-07-21T05:11:09;22.90;62.50
69382;DHT22;56560;50.692;12.844;2022-07-21T05:13:35;23.20;61.60
69382;DHT22;56560;50.692;12.844;2022-07-21T05:16:01;23.50;60.80
69382;DHT22;56560;50.692;12.844;2022-07-21T05:18:26;23.80;59.70
69382;DHT22;56560;50.692;12.844;2022-07-21T05:20:52;24.10;58.50
69382;DHT22;56560;50.692;12.844;2022-07-21T05:23:18;24.30;57.50
69382;DHT22;56560;50.692;12.844;2022-07-21T05:25:43;24.30;57.30
69382;DHT22;56560;50.692;12.844;2022-07-21T05:28:09;24.30;57.50
69382;DHT22;56560;50.692;12.844;2022-07-21T05:30:35;24.20;58.20
69382;DHT22;56560;50.692;12.844;2022-07-21T05:33:01;24.10;57.90
69382;DHT22;56560;50.692;12.844;2022-07-21T05:35:26;23.90;58.50
69382;DHT22;56560;50.692;12.844;2022-07-21T05:37:52;23.80;58.10
69382;DHT22;56560;50.692;12.844;2022-07-21T05:40:18;23.70;58.50
69382;DHT22;56560;50.692;12.844;2022-07-21T05:42:43;23.50;59.10
69382;DHT22;56560;50.692;12.844;2022-07-21T05:45:10;23.40;59.80
69382;DHT22;56560;50.692;12.844;2022-07-21T05:47:37;23.40;59.60
69382;DHT22;56560;50.692;12.844;2022-07-21T05:50:03;23.40;59.70
69382;DHT22;56560;50.692;12.844;2022-07-21T05:52:29;23.50;59.50
69382;DHT22;56560;50.692;12.844;2022-07-21T05:54:54;23.70;59.70
69382;DHT22;56560;50.692;12.844;2022-07-21T05:57:20;23.90;60.50
69382;DHT22;56560;50.692;12.844;2022-07-21T05:59:46;24.10;59.60
69382;DHT22;56560;50.692;12.844;2022-07-21T06:02:11;24.40;58.60
69382;DHT22;56560;50.692;12.844;2022-07-21T06:04:37;24.60;56.50
69382;DHT22;56560;50.692;12.844;2022-07-21T06:07:03;24.70;55.80
69382;DHT22;56560;50.692;12.844;2022-07-21T06:09:29;24.70;54.80
69382;DHT22;56560;50.692;12.844;2022-07-21T06:11:54;24.70;54.30
69382;DHT22;56560;50.692;12.844;2022-07-21T06:14:20;24.90;53.60
69382;DHT22;56560;50.692;12.844;2022-07-21T06:16:46;25.00;53.00
69382;DHT22;56560;50.692;12.844;2022-07-21T06:19:11;25.20;53.40
69382;DHT22;56560;50.692;12.844;2022-07-21T06:21:37;25.40;52.10
69382;DHT22;56560;50.692;12.844;2022-07-21T06:24:03;25.70;50.90
69382;DHT22;56560;50.692;12.844;2022-07-21T06:26:28;25.90;50.60
69382;DHT22;56560;50.692;12.844;2022-07-21T06:28:54;26.10;49.40
69382;DHT22;56560;50.692;12.844;2022-07-21T06:31:20;26.20;49.30
69382;DHT22;56560;50.692;12.844;2022-07-21T06:33:46;26.20;48.90
69382;DHT22;56560;50.692;12.844;2022-07-21T06:36:11;26.30;49.40
69382;DHT22;56560;50.692;12.844;2022-07-21T06:38:37;26.50;48.80
69382;DHT22;56560;50.692;12.844;2022-07-21T06:41:03;26.90;48.70
69382;DHT22;56560;50.692;12.844;2022-07-21T06:43:28;27.30;48.00
69382;DHT22;56560;50.692;12.844;2022-07-21T06:45:55;27.40;47.40
69382;DHT22;56560;50.692;12.844;2022-07-21T06:48:21;27.30;47.20
69382;DHT22;56560;50.692;12.844;2022-07-21T06:50:47;26.90;47.20
69382;DHT22;56560;50.692;12.844;2022-07-21T06:53:13;26.70;47.80
69382;DHT22;56560;50.692;12.844;2022-07-21T06:55:39;26.50;48.20
69382;DHT22;56560;50.692;12.844;2022-07-21T06:58:18;26.40;48.70
69382;DHT22;56560;50.692;12.844;2022-07-21T07:00:46;26.20;49.20
69382;DHT22;56560;50.692;12.844;2022-07-21T07:03:12;26.10;49.60
69382;DHT22;56560;50.692;12.844;2022-07-21T07:05:39;26.10;50.00
69382;DHT22;56560;50.692;12.844;2022-07-21T07:08:06;26.10;50.20
69382;DHT22;56560;50.692;12.844;2022-07-21T07:10:32;26.10;51.10
69382;DHT22;56560;50.692;12.844;2022-07-21T07:12:58;25.90;50.80
69382;DHT22;56560;50.692;12.844;2022-07-21T07:15:24;25.80;51.20
69382;DHT22;56560;50.692;12.844;2022-07-21T07:17:50;25.80;51.40
69382;DHT22;56560;50.692;12.844;2022-07-21T07:20:16;26.00;51.40
69382;DHT22;56560;50.692;12.844;2022-07-21T07:22:42;26.20;51.10
69382;DHT22;56560;50.692;12.844;2022-07-21T07:25:08;26.40;50.40
69382;DHT22;56560;50.692;12.844;2022-07-21T07:27:34;26.70;49.70
69382;DHT22;56560;50.692;12.844;2022-07-21T07:30:00;27.00;48.90
69382;DHT22;56560;50.692;12.844;2022-07-21T07:32:25;27.40;48.20
69382;DHT22;56560;50.692;12.844;2022-07-21T07:34:51;27.90;46.30
69382;DHT22;56560;50.692;12.844;2022-07-21T07:37:17;28.30;46.00
69382;DHT22;56560;50.692;12.844;2022-07-21T07:39:43;28.70;44.50
69382;DHT22;56560;50.692;12.844;2022-07-21T07:42:08;28.50;44.50
69382;DHT22;56560;50.692;12.844;2022-07-21T07:44:34;28.80;43.70
69382;DHT22;56560;50.692;12.844;2022-07-21T07:47:00;28.80;43.80
69382;DHT22;56560;50.692;12.844;2022-07-21T07:49:29;29.00;43.30
69382;DHT22;56560;50.692;12.844;2022-07-21T07:51:56;29.40;42.30
69382;DHT22;56560;50.692;12.844;2022-07-21T07:54:21;29.80;41.80
69382;DHT22;56560;50.692;12.844;2022-07-21T07:56:47;30.20;41.10
69382;DHT22;56560;50.692;12.844;2022-07-21T07:59:13;30.20;41.00
69382;DHT22;56560;50.692;12.844;2022-07-21T08:01:40;29.70;41.30
69382;DHT22;56560;50.692;12.844;2022-07-21T08:04:05;29.50;41.40
69382;DHT22;56560;50.692;12.844;2022-07-21T08:06:31;29.30;41.90
69382;DHT22;56560;50.692;12.844;2022-07-21T08:08:58;29.30;42.00
69382;DHT22;56560;50.692;12.844;2022-07-21T08:11:24;29.10;42.00
69382;DHT22;56560;50.692;12.844;2022-07-21T08:13:50;28.80;42.70
69382;DHT22;56560;50.692;12.844;2022-07-21T08:16:16;28.60;42.60
69382;DHT22;56560;50.692;12.844;2022-07-21T08:18:42;28.70;42.90
69382;DHT22;56560;50.692;12.844;2022-07-21T08:21:08;28.70;43.20
69382;DHT22;56560;50.692;12.844;2022-07-21T08:23:34;28.70;43.10
69382;DHT22;56560;50.692;12.844;2022-07-21T08:26:00;28.20;42.50
69382;DHT22;56560;50.692;12.844;2022-07-21T08:28:25;27.90;43.30
69382;DHT22;56560;50.692;12.844;2022-07-21T08:30:51;27.70;43.80
69382;DHT22;56560;50.692;12.844;2022-07-21T08:33:17;27.40;45.00
69382;DHT22;56560;50.692;12.844;2022-07-21T08:35:42;27.20;45.50
69382;DHT22;56560;50.692;12.844;2022-07-21T08:38:09;27.00;45.60
69382;DHT22;56560;50.692;12.844;2022-07-21T08:40:45;26.80;46.70
69382;DHT22;56560;50.692;12.844;2022-07-21T08:43:11;26.40;48.00
69382;DHT22;56560;50.692;12.844;2022-07-21T08:45:40;26.10;48.90
69382;DHT22;56560;50.692;12.844;2022-07-21T08:48:07;25.90;49.90
69382;DHT22;56560;50.692;12.844;2022-07-21T08:50:35;25.80;50.00
69382;DHT22;56560;50.692;12.844;2022-07-21T08:53:02;25.80;50.10
69382;DHT22;56560;50.692;12.844;2022-07-21T08:55:32;25.70;50.80
69382;DHT22;56560;50.692;12.844;2022-07-21T08:57:58;25.50;51.10
69382;DHT22;56560;50.692;12.844;2022-07-21T09:00:24;25.40;52.00
69382;DHT22;56560;50.692;12.844;2022-07-21T09:05:39;25.20;53.20
69382;DHT22;56560;50.692;12.844;2022-07-21T09:08:05;25.20;53.80
69382;DHT22;56560;50.692;12.844;2022-07-21T09:10:31;25.20;53.50
69382;DHT22;56560;50.692;12.844;2022-07-21T09:13:03;25.00;54.50
69382;DHT22;56560;50.692;12.844;2022-07-21T09:15:30;24.60;55.10
69382;DHT22;56560;50.692;12.844;2022-07-21T09:18:08;24.50;55.80
69382;DHT22;56560;50.692;12.844;2022-07-21T09:20:34;24.40;58.60
69382;DHT22;56560;50.692;12.844;2022-07-21T09:23:12;24.00;60.70
69382;DHT22;56560;50.692;12.844;2022-07-21T09:25:47;23.70;61.50
69382;DHT22;56560;50.692;12.844;2022-07-21T09:28:14;23.40;63.40
69382;DHT22;56560;50.692;12.844;2022-07-21T09:30:54;23.10;64.10
69382;DHT22;56560;50.692;12.844;2022-07-21T09:33:24;22.90;67.30
69382;DHT22;56560;50.692;12.844;2022-07-21T09:38:28;22.60;69.00
69382;DHT22;56560;50.692;12.844;2022-07-21T09:40:54;22.50;68.90
69382;DHT22;56560;50.692;12.844;2022-07-21T09:43:29;22.40;69.40
69382;DHT22;56560;50.692;12.844;2022-07-21T09:45:55;22.30;70.70
69382;DHT22;56560;50.692;12.844;2022-07-21T09:48:32;22.30;70.70
69382;DHT22;56560;50.692;12.844;2022-07-21T09:51:27;22.40;70.20
69382;DHT22;56560;50.692;12.844;2022-07-21T09:53:57;22.40;69.60
69382;DHT22;56560;50.692;12.844;2022-07-21T09:56:24;22.50;70.00
69382;DHT22;56560;50.692;12.844;2022-07-21T09:58:53;22.50;69.10
69382;DHT22;56560;50.692;12.844;2022-07-21T10:01:19;22.50;71.20
69382;DHT22;56560;50.692;12.844;2022-07-21T10:03:48;22.50;72.50
69382;DHT22;56560;50.692;12.844;2022-07-21T10:06:16;22.60;71.80
69382;DHT22;56560;50.692;12.844;2022-07-21T10:08:43;22.60;72.60
69382;DHT22;56560;50.692;12.844;2022-07-21T10:11:10;22.60;71.40
69382;DHT22;56560;50.692;12.844;2022-07-21T10:13:37;22.60;71.70
69382;DHT22;56560;50.692;12.844;2022-07-21T10:16:04;22.60;70.70
69382;DHT22;56560;50.692;12.844;2022-07-21T10:18:37;22.70;70.10
69382;DHT22;56560;50.692;12.844;2022-07-21T10:21:25;22.90;70.70
69382;DHT22;56560;50.692;12.844;2022-07-21T10:23:53;23.00;71.40
69382;DHT22;56560;50.692;12.844;2022-07-21T10:26:19;23.00;70.40
69382;DHT22;56560;50.692;12.844;2022-07-21T10:28:45;23.00;70.60
69382;DHT22;56560;50.692;12.844;2022-07-21T10:31:15;22.90;69.70
69382;DHT22;56560;50.692;12.844;2022-07-21T10:41:50;22.90;70.10
69382;DHT22;56560;50.692;12.844;2022-07-21T10:47:03;22.80;71.30
69382;DHT22;56560;50.692;12.844;2022-07-21T10:57:46;22.30;74.60
69382;DHT22;56560;50.692;12.844;2022-07-21T11:00:18;22.20;75.10
69382;DHT22;56560;50.692;12.844;2022-07-21T11:02:50;22.20;74.90
69382;DHT22;56560;50.692;12.844;2022-07-21T11:05:16;22.20;75.10
69382;DHT22;56560;50.692;12.844;2022-07-21T11:08:11;22.20;75.90
69382;DHT22;56560;50.692;12.844;2022-07-21T11:10:43;22.20;75.10
69382;DHT22;56560;50.692;12.844;2022-07-21T11:13:09;22.30;76.00
69382;DHT22;56560;50.692;12.844;2022-07-21T11:18:19;22.30;73.70
69382;DHT22;56560;50.692;12.844;2022-07-21T11:21:18;22.20;73.80
69382;DHT22;56560;50.692;12.844;2022-07-21T11:23:50;22.30;72.50
69382;DHT22;56560;50.692;12.844;2022-07-21T11:26:18;22.30;72.70
69382;DHT22;56560;50.692;12.844;2022-07-21T11:28:45;22.30;72.60
69382;DHT22;56560;50.692;12.844;2022-07-21T11:33:45;22.30;73.70
69382;DHT22;56560;50.692;12.844;2022-07-21T11:36:29;22.10;75.70
69382;DHT22;56560;50.692;12.844;2022-07-21T11:39:00;22.10;74.80
69382;DHT22;56560;50.692;12.844;2022-07-21T11:41:26;22.10;73.90
69382;DHT22;56560;50.692;12.844;2022-07-21T11:43:51;22.10;74.30
69382;DHT22;56560;50.692;12.844;2022-07-21T11:46:17;22.00;75.20
69382;DHT22;56560;50.692;12.844;2022-07-21T11:48:43;21.90;76.60
69382;DHT22;56560;50.692;12.844;2022-07-21T11:51:09;22.10;75.70
69382;DHT22;56560;50.692;12.844;2022-07-21T11:53:35;22.30;76.50
69382;DHT22;56560;50.692;12.844;2022-07-21T11:56:00;22.40;76.50
69382;DHT22;56560;50.692;12.844;2022-07-21T11:58:26;22.60;75.40
69382;DHT22;56560;50.692;12.844;2022-07-21T12:01:06;22.70;75.90
69382;DHT22;56560;50.692;12.844;2022-07-21T12:03:32;22.70;75.00
69382;DHT22;56560;50.692;12.844;2022-07-21T12:06:00;22.70;74.20
69382;DHT22;56560;50.692;12.844;2022-07-21T12:08:26;22.70;74.80
69382;DHT22;56560;50.692;12.844;2022-07-21T12:11:04;22.60;75.50
69382;DHT22;56560;50.692;12.844;2022-07-21T12:13:30;22.60;75.10
69382;DHT22;56560;50.692;12.844;2022-07-21T12:15:56;22.50;74.00
69382;DHT22;56560;50.692;12.844;2022-07-21T12:18:22;22.60;75.30
69382;DHT22;56560;50.692;12.844;2022-07-21T12:21:02;22.80;75.30
69382;DHT22;56560;50.692;12.844;2022-07-21T12:23:30;23.10;74.70
69382;DHT22;56560;50.692;12.844;2022-07-21T12:26:01;23.50;72.70
69382;DHT22;56560;50.692;12.844;2022-07-21T12:28:46;23.80;71.30
69382;DHT22;56560;50.692;12.844;2022-07-21T12:31:17;23.80;69.30
69382;DHT22;56560;50.692;12.844;2022-07-21T12:33:47;23.60;69.70
69382;DHT22;56560;50.692;12.844;2022-07-21T12:36:13;23.50;70.40
69382;DHT22;56560;50.692;12.844;2022-07-21T12:38:41;23.40;71.30
69382;DHT22;56560;50.692;12.844;2022-07-21T12:41:08;23.30;71.70
69382;DHT22;56560;50.692;12.844;2022-07-21T12:43:35;23.30;71.00
69382;DHT22;56560;50.692;12.844;2022-07-21T12:46:03;23.40;71.80
69382;DHT22;56560;50.692;12.844;2022-07-21T12:48:34;23.60;70.30
69382;DHT22;56560;50.692;12.844;2022-07-21T12:53:58;25.10;65.90
69382;DHT22;56560;50.692;12.844;2022-07-21T12:56:32;27.20;58.80
69382;DHT22;56560;50.692;12.844;2022-07-21T12:58:59;28.40;58.30
69382;DHT22;56560;50.692;12.844;2022-07-21T13:01:27;29.50;52.70
69382;DHT22;56560;50.692;12.844;2022-07-21T13:03:54;29.70;50.70
69382;DHT22;56560;50.692;12.844;2022-07-21T13:06:20;29.70;50.50
69382;DHT22;56560;50.692;12.844;2022-07-21T13:08:47;29.30;50.70
69382;DHT22;56560;50.692;12.844;2022-07-21T13:11:14;29.10;51.70
69382;DHT22;56560;50.692;12.844;2022-07-21T13:13:41;29.00;53.10
69382;DHT22;56560;50.692;12.844;2022-07-21T13:16:07;28.70;53.80
69382;DHT22;56560;50.692;12.844;2022-07-21T13:18:34;28.10;53.90
69382;DHT22;56560;50.692;12.844;2022-07-21T13:21:01;27.50;55.40
69382;DHT22;56560;50.692;12.844;2022-07-21T13:23:27;27.10;56.90
69382;DHT22;56560;50.692;12.844;2022-07-21T13:25:52;27.00;58.00
69382;DHT22;56560;50.692;12.844;2022-07-21T13:28:18;27.30;57.30
69382;DHT22;56560;50.692;12.844;2022-07-21T13:30:45;27.70;56.00
69382;DHT22;56560;50.692;12.844;2022-07-21T13:33:11;27.80;54.80
69382;DHT22;56560;50.692;12.844;2022-07-21T13:35:37;27.70;55.10
69382;DHT22;56560;50.692;12.844;2022-07-21T13:38:03;27.50;54.50
69382;DHT22;56560;50.692;12.844;2022-07-21T13:40:28;27.50;54.90
69382;DHT22;56560;50.692;12.844;2022-07-21T13:42:54;27.70;54.70
69382;DHT22;56560;50.692;12.844;2022-07-21T13:45:21;27.80;54.20
69382;DHT22;56560;50.692;12.844;2022-07-21T13:47:46;27.90;54.10
69382;DHT22;56560;50.692;12.844;2022-07-21T13:50:13;28.20;53.40
69382;DHT22;56560;50.692;12.844;2022-07-21T13:52:39;28.40;53.10
69382;DHT22;56560;50.692;12.844;2022-07-21T13:55:07;28.20;52.40
69382;DHT22;56560;50.692;12.844;2022-07-21T13:57:33;27.90;54.10
69382;DHT22;56560;50.692;12.844;2022-07-21T13:59:58;27.80;54.50
69382;DHT22;56560;50.692;12.844;2022-07-21T14:02:24;27.60;54.50
69382;DHT22;56560;50.692;12.844;2022-07-21T14:04:49;28.50;52.50
69382;DHT22;56560;50.692;12.844;2022-07-21T14:07:15;30.20;50.40
69382;DHT22;56560;50.692;12.844;2022-07-21T14:09:41;31.30;46.50
69382;DHT22;56560;50.692;12.844;2022-07-21T14:12:07;32.30;45.20
69382;DHT22;56560;50.692;12.844;2022-07-21T14:14:35;33.00;42.70
69382;DHT22;56560;50.692;12.844;2022-07-21T14:17:01;33.20;43.10
69382;DHT22;56560;50.692;12.844;2022-07-21T14:19:27;33.20;42.60
69382;DHT22;56560;50.692;12.844;2022-07-21T14:21:52;33.20;42.70
69382;DHT22;56560;50.692;12.844;2022-07-21T14:24:18;33.00;41.70
69382;DHT22;56560;50.692;12.844;2022-07-21T14:27:02;33.40;42.10
69382;DHT22;56560;50.692;12.844;2022-07-21T14:29:28;34.10;40.70
69382;DHT22;56560;50.692;12.844;2022-07-21T14:31:54;34.90;39.10
69382;DHT22;56560;50.692;12.844;2022-07-21T14:34:20;35.10;38.60
69382;DHT22;56560;50.692;12.844;2022-07-21T14:36:45;35.80;37.40
69382;DHT22;56560;50.692;12.844;2022-07-21T14:39:13;36.50;36.60
69382;DHT22;56560;50.692;12.844;2022-07-21T14:41:38;37.20;35.10
69382;DHT22;56560;50.692;12.844;2022-07-21T14:44:04;36.80;35.80
69382;DHT22;56560;50.692;12.844;2022-07-21T14:46:30;37.10;35.00
69382;DHT22;56560;50.692;12.844;2022-07-21T14:48:56;36.80;35.20
69382;DHT22;56560;50.692;12.844;2022-07-21T14:51:22;36.30;36.40
69382;DHT22;56560;50.692;12.844;2022-07-21T14:53:48;36.80;36.20
69382;DHT22;56560;50.692;12.844;2022-07-21T14:56:13;37.60;34.70
69382;DHT22;56560;50.692;12.844;2022-07-21T14:58:39;37.80;32.50
69382;DHT22;56560;50.692;12.844;2022-07-21T15:01:05;37.30;34.60
69382;DHT22;56560;50.692;12.844;2022-07-21T15:03:30;37.50;35.30
69382;DHT22;56560;50.692;12.844;2022-07-21T15:05:56;38.00;32.00
69382;DHT22;56560;50.692;12.844;2022-07-21T15:08:22;38.30;32.30
69382;DHT22;56560;50.692;12.844;2022-07-21T15:10:47;39.00;31.60
69382;DHT22;56560;50.692;12.844;2022-07-21T15:13:15;39.90;30.10
69382;DHT22;56560;50.692;12.844;2022-07-21T15:15:40;39.20;29.40
69382;DHT22;56560;50.692;12.844;2022-07-21T15:18:07;38.80;30.00
69382;DHT22;56560;50.692;12.844;2022-07-21T15:20:33;38.20;30.10
69382;DHT22;56560;50.692;12.844;2022-07-21T15:22:59;38.10;30.10
69382;DHT22;56560;50.692;12.844;2022-07-21T15:25:25;38.00;30.60
69382;DHT22;56560;50.692;12.844;2022-07-21T15:27:50;37.50;30.70
69382;DHT22;56560;50.692;12.844;2022-07-21T15:30:16;37.30;30.90
69382;DHT22;56560;50.692;12.844;2022-07-21T15:32:43;36.60;31.80
69382;DHT22;56560;50.692;12.844;2022-07-21T15:35:10;35.90;32.60
69382;DHT22;56560;50.692;12.844;2022-07-21T15:37:36;35.40;33.50
69382;DHT22;56560;50.692;12.844;2022-07-21T15:40:03;35.90;33.10
69382;DHT22;56560;50.692;12.844;2022-07-21T15:42:29;34.70;33.70
69382;DHT22;56560;50.692;12.844;2022-07-21T15:44:58;34.40;34.00
69382;DHT22;56560;50.692;12.844;2022-07-21T15:47:24;35.00;33.40